sensor_id;sensor_type;location;lat;lon;timestamp;temperature;humidity
21318;DHT22;10818;50.830;6.524;2023-05-25T00:00:45;9.50;99.90
21318;DHT22;10818;50.830;6.524;2023-05-25T00:05:46;9.40;99.90
21318;DHT22;10818;50.830;6.524;2023-05-25T00:10:48;9.50;99.90
21318;DHT22;10818;50.830;6.524;2023-05-25T00:15:48;9.60;99.90
21318;DHT22;10818;50.830;6.524;2023-05-25T00:20:49;9.70;99.90
21318;DHT22;10818;50.830;6.524;2023-05-25T00:25:53;9.70;99.90
21318;DHT22;10818;50.830;6.524;2023-05-25T00:30:53;9.80;99.90
21318;DHT22;10818;50.830;6.524;2023-05-25T00:35:55;9.90;99.90
21318;DHT22;10818;50.830;6.524;2023-05-25T00:40:56;10.10;99.90
21318;DHT22;10818;50.830;6.524;2023-05-25T00:45:56;10.00;99.90
21318;DHT22;10818;50.830;6.524;2023-05-25T00:50:57;10.10;99.90
21318;DHT22;10818;50.830;6.524;2023-05-25T00:56:01;10.20;99.90
21318;DHT22;10818;50.830;6.524;2023-05-25T01:01:02;10.20;99.90
21318;DHT22;10818;50.830;6.524;2023-05-25T01:06:03;10.10;99.90
21318;DHT22;10818;50.830;6.524;2023-05-25T01:11:06;10.00;99.90
21318;DHT22;10818;50.830;6.524;2023-05-25T01:16:08;10.00;99.90
21318;DHT22;10818;50.830;6.524;2023-05-25T01:21:11;10.00;99.90
21318;DHT22;10818;50.830;6.524;2023-05-25T01:26:14;9.70;99.90
21318;DHT22;10818;50.830;6.524;2023-05-25T01:31:15;9.60;99.90
21318;DHT22;10818;50.830;6.524;2023-05-25T01:36:18;9.60;99.90
21318;DHT22;10818;50.830;6.524;2023-05-25T01:41:18;9.50;99.90
21318;DHT22;10818;50.830;6.524;2023-05-25T01:46:31;9.30;99.90
21318;DHT22;10818;50.830;6.524;2023-05-25T01:51:37;9.30;99.90
21318;DHT22;10818;50.830;6.524;2023-05-25T01:56:38;9.20;99.90
21318;DHT22;10818;50.830;6.524;2023-05-25T02:01:41;9.20;99.90
21318;DHT22;10818;50.830;6.524;2023-05-25T02:06:46;9.10;99.90
21318;DHT22;10818;50.830;6.524;2023-05-25T02:11:47;8.90;99.90
21318;DHT22;10818;50.830;6.524;2023-05-25T02:16:48;8.90;99.90
21318;DHT22;10818;50.830;6.524;2023-05-25T02:21:48;8.90;99.90
21318;DHT22;10818;50.830;6.524;2023-05-25T02:26:49;8.80;99.90
21318;DHT22;10818;50.830;6.524;2023-05-25T02:31:50;8.80;99.90
21318;DHT22;10818;50.830;6.524;2023-05-25T02:36:50;8.70;99.90
21318;DHT22;10818;50.830;6.524;2023-05-25T02:41:51;8.60;99.90
21318;DHT22;10818;50.830;6.524;2023-05-25T02:46:51;8.50;99.90
21318;DHT22;10818;50.830;6.524;2023-05-25T02:51:51;8.40;99.90
21318;DHT22;10818;50.830;6.524;2023-05-25T02:56:52;8.30;99.90
21318;DHT22;10818;50.830;6.524;2023-05-25T03:01:52;8.20;99.90
21318;DHT22;10818;50.830;6.524;2023-05-25T03:06:53;8.20;99.90
21318;DHT22;10818;50.830;6.524;2023-05-25T03:11:53;8.20;99.90
21318;DHT22;10818;50.830;6.524;2023-05-25T03:16:54;8.10;99.90
21318;DHT22;10818;50.830;6.524;2023-05-25T03:21:54;8.00;99.90
21318;DHT22;10818;50.830;6.524;2023-05-25T03:26:55;7.90;99.90
21318;DHT22;10818;50.830;6.524;2023-05-25T03:31:55;7.80;99.90
21318;DHT22;10818;50.830;6.524;2023-05-25T03:36:55;7.80;99.90
21318;DHT22;10818;50.830;6.524;2023-05-25T03:41:56;7.90;99.90
21318;DHT22;10818;50.830;6.524;2023-05-25T03:46:57;8.00;99.90
21318;DHT22;10818;50.830;6.524;2023-05-25T03:51:58;8.20;99.90
21318;DHT22;10818;50.830;6.524;2023-05-25T03:57:01;8.00;99.90
21318;DHT22;10818;50.830;6.524;2023-05-25T04:02:03;8.00;99.90
21318;DHT22;10818;50.830;6.524;2023-05-25T04:07:03;8.10;99.90
21318;DHT22;10818;50.830;6.524;2023-05-25T04:12:04;8.20;99.90
21318;DHT22;10818;50.830;6.524;2023-05-25T04:17:04;8.30;99.90
21318;DHT22;10818;50.830;6.524;2023-05-25T04:22:05;8.50;99.90
21318;DHT22;10818;50.830;6.524;2023-05-25T04:27:05;8.60;99.90
21318;DHT22;10818;50.830;6.524;2023-05-25T04:32:06;8.80;99.90
21318;DHT22;10818;50.830;6.524;2023-05-25T04:37:08;9.20;99.90
21318;DHT22;10818;50.830;6.524;2023-05-25T04:42:09;9.40;99.90
21318;DHT22;10818;50.830;6.524;2023-05-25T04:47:09;9.60;99.90
21318;DHT22;10818;50.830;6.524;2023-05-25T04:52:11;9.70;99.90
21318;DHT22;10818;50.830;6.524;2023-05-25T04:57:11;9.90;99.90
21318;DHT22;10818;50.830;6.524;2023-05-25T05:02:12;10.00;99.90
21318;DHT22;10818;50.830;6.524;2023-05-25T05:07:12;10.20;99.90
21318;DHT22;10818;50.830;6.524;2023-05-25T05:12:13;10.40;99.90
21318;DHT22;10818;50.830;6.524;2023-05-25T05:17:13;10.60;99.90
21318;DHT22;10818;50.830;6.524;2023-05-25T05:22:14;10.80;99.90
21318;DHT22;10818;50.830;6.524;2023-05-25T05:27:15;11.00;99.90
21318;DHT22;10818;50.830;6.524;2023-05-25T05:32:15;11.30;99.90
21318;DHT22;10818;50.830;6.524;2023-05-25T05:37:16;11.60;99.90
21318;DHT22;10818;50.830;6.524;2023-05-25T05:42:16;11.90;99.90
21318;DHT22;10818;50.830;6.524;2023-05-25T05:47:17;12.10;99.90
21318;DHT22;10818;50.830;6.524;2023-05-25T05:52:17;12.40;99.90
21318;DHT22;10818;50.830;6.524;2023-05-25T05:57:18;12.70;99.90
21318;DHT22;10818;50.830;6.524;2023-05-25T06:02:18;13.00;99.90
21318;DHT22;10818;50.830;6.524;2023-05-25T06:07:19;13.40;99.90
21318;DHT22;10818;50.830;6.524;2023-05-25T06:12:20;13.80;99.90
21318;DHT22;10818;50.830;6.524;2023-05-25T06:17:21;14.20;99.90
21318;DHT22;10818;50.830;6.524;2023-05-25T06:22:22;14.50;99.90
21318;DHT22;10818;50.830;6.524;2023-05-25T06:27:26;15.40;99.90
21318;DHT22;10818;50.830;6.524;2023-05-25T06:32:27;18.30;99.90
21318;DHT22;10818;50.830;6.524;2023-05-25T06:37:28;23.60;99.90
21318;DHT22;10818;50.830;6.524;2023-05-25T06:42:34;28.10;99.70
21318;DHT22;10818;50.830;6.524;2023-05-25T06:47:34;30.80;90.20
21318;DHT22;10818;50.830;6.524;2023-05-25T06:52:35;33.30;74.10
21318;DHT22;10818;50.830;6.524;2023-05-25T06:57:35;32.40;69.70
21318;DHT22;10818;50.830;6.524;2023-05-25T07:02:36;31.70;67.10
21318;DHT22;10818;50.830;6.524;2023-05-25T07:07:36;35.30;62.00
21318;DHT22;10818;50.830;6.524;2023-05-25T07:12:37;37.40;57.00
21318;DHT22;10818;50.830;6.524;2023-05-25T07:17:37;35.80;54.60
21318;DHT22;10818;50.830;6.524;2023-05-25T07:22:38;38.10;51.40
21318;DHT22;10818;50.830;6.524;2023-05-25T07:27:38;37.80;50.10
21318;DHT22;10818;50.830;6.524;2023-05-25T07:32:39;39.50;47.10
21318;DHT22;10818;50.830;6.524;2023-05-25T07:37:40;40.10;46.30
21318;DHT22;10818;50.830;6.524;2023-05-25T07:42:41;40.00;44.20
21318;DHT22;10818;50.830;6.524;2023-05-25T07:47:41;39.80;44.60
21318;DHT22;10818;50.830;6.524;2023-05-25T07:52:41;40.40;43.60
21318;DHT22;10818;50.830;6.524;2023-05-25T07:57:42;42.40;42.30
21318;DHT22;10818;50.830;6.524;2023-05-25T08:02:43;42.40;40.40
21318;DHT22;10818;50.830;6.524;2023-05-25T08:07:44;38.50;42.00
21318;DHT22;10818;50.830;6.524;2023-05-25T08:12:44;36.60;44.90
21318;DHT22;10818;50.830;6.524;2023-05-25T08:17:45;39.00;43.50
21318;DHT22;10818;50.830;6.524;2023-05-25T08:22:45;38.60;42.80
21318;DHT22;10818;50.830;6.524;2023-05-25T08:27:46;33.60;47.60
21318;DHT22;10818;50.830;6.524;2023-05-25T08:32:46;30.20;53.00
21318;DHT22;10818;50.830;6.524;2023-05-25T08:37:47;28.60;56.00
21318;DHT22;10818;50.830;6.524;2023-05-25T08:42:47;27.30;59.00
21318;DHT22;10818;50.830;6.524;2023-05-25T08:47:48;27.00;60.70
21318;DHT22;10818;50.830;6.524;2023-05-25T08:52:52;25.80;64.30
21318;DHT22;10818;50.830;6.524;2023-05-25T08:58:16;24.10;67.30
21318;DHT22;10818;50.830;6.524;2023-05-25T09:03:15;23.40;70.40
21318;DHT22;10818;50.830;6.524;2023-05-25T09:08:16;22.50;74.30
21318;DHT22;10818;50.830;6.524;2023-05-25T09:13:18;21.90;76.80
21318;DHT22;10818;50.830;6.524;2023-05-25T09:18:19;23.10;77.90
21318;DHT22;10818;50.830;6.524;2023-05-25T09:23:19;23.10;75.70
21318;DHT22;10818;50.830;6.524;2023-05-25T09:28:20;22.20;79.40
21318;DHT22;10818;50.830;6.524;2023-05-25T09:33:20;22.90;77.30
21318;DHT22;10818;50.830;6.524;2023-05-25T09:38:21;21.80;80.40
21318;DHT22;10818;50.830;6.524;2023-05-25T09:43:21;21.70;80.40
21318;DHT22;10818;50.830;6.524;2023-05-25T09:48:22;21.70;80.40
21318;DHT22;10818;50.830;6.524;2023-05-25T09:53:23;22.30;79.70
21318;DHT22;10818;50.830;6.524;2023-05-25T09:58:25;22.20;82.10
21318;DHT22;10818;50.830;6.524;2023-05-25T10:03:26;22.20;81.60
21318;DHT22;10818;50.830;6.524;2023-05-25T10:08:26;22.50;80.10
21318;DHT22;10818;50.830;6.524;2023-05-25T10:13:27;21.30;83.40
21318;DHT22;10818;50.830;6.524;2023-05-25T10:18:28;22.20;82.60
21318;DHT22;10818;50.830;6.524;2023-05-25T10:23:34;22.20;82.00
21318;DHT22;10818;50.830;6.524;2023-05-25T10:28:36;22.80;81.40
21318;DHT22;10818;50.830;6.524;2023-05-25T10:33:38;21.10;85.20
21318;DHT22;10818;50.830;6.524;2023-05-25T10:38:39;21.30;86.20
21318;DHT22;10818;50.830;6.524;2023-05-25T10:43:39;22.10;84.50
21318;DHT22;10818;50.830;6.524;2023-05-25T10:48:47;22.60;83.00
21318;DHT22;10818;50.830;6.524;2023-05-25T10:53:57;22.60;82.60
21318;DHT22;10818;50.830;6.524;2023-05-25T10:58:57;22.70;82.60
21318;DHT22;10818;50.830;6.524;2023-05-25T11:09:05;22.20;84.70
21318;DHT22;10818;50.830;6.524;2023-05-25T11:14:10;21.90;83.70
21318;DHT22;10818;50.830;6.524;2023-05-25T11:19:19;21.70;85.70
21318;DHT22;10818;50.830;6.524;2023-05-25T11:24:20;20.80;88.20
21318;DHT22;10818;50.830;6.524;2023-05-25T11:29:20;21.50;89.20
21318;DHT22;10818;50.830;6.524;2023-05-25T11:34:22;21.70;87.20
21318;DHT22;10818;50.830;6.524;2023-05-25T11:39:25;21.00;87.80
21318;DHT22;10818;50.830;6.524;2023-05-25T11:44:26;21.40;86.70
21318;DHT22;10818;50.830;6.524;2023-05-25T11:49:27;21.90;85.70
21318;DHT22;10818;50.830;6.524;2023-05-25T11:54:28;22.20;86.60
21318;DHT22;10818;50.830;6.524;2023-05-25T11:59:30;22.30;85.30
21318;DHT22;10818;50.830;6.524;2023-05-25T12:04:32;21.80;85.60
21318;DHT22;10818;50.830;6.524;2023-05-25T12:09:33;21.10;87.80
21318;DHT22;10818;50.830;6.524;2023-05-25T12:14:34;21.50;87.70
21318;DHT22;10818;50.830;6.524;2023-05-25T12:19:40;21.40;87.60
21318;DHT22;10818;50.830;6.524;2023-05-25T12:24:41;20.40;90.30
21318;DHT22;10818;50.830;6.524;2023-05-25T12:29:47;20.50;91.30
21318;DHT22;10818;50.830;6.524;2023-05-25T12:34:48;21.50;90.50
21318;DHT22;10818;50.830;6.524;2023-05-25T12:39:48;21.50;90.50
21318;DHT22;10818;50.830;6.524;2023-05-25T12:44:52;21.70;90.60
21318;DHT22;10818;50.830;6.524;2023-05-25T12:50:08;20.60;91.40
21318;DHT22;10818;50.830;6.524;2023-05-25T13:00:30;20.50;91.90
21318;DHT22;10818;50.830;6.524;2023-05-25T13:05:31;19.70;92.90
21318;DHT22;10818;50.830;6.524;2023-05-25T13:10:35;19.70;93.80
21318;DHT22;10818;50.830;6.524;2023-05-25T13:15:36;20.30;94.30
21318;DHT22;10818;50.830;6.524;2023-05-25T13:20:36;20.20;94.50
21318;DHT22;10818;50.830;6.524;2023-05-25T13:25:37;19.60;94.30
21318;DHT22;10818;50.830;6.524;2023-05-25T13:30:37;19.80;93.80
21318;DHT22;10818;50.830;6.524;2023-05-25T13:35:38;19.90;95.50
21318;DHT22;10818;50.830;6.524;2023-05-25T13:40:57;19.60;95.20
21318;DHT22;10818;50.830;6.524;2023-05-25T13:45:57;19.80;95.50
21318;DHT22;10818;50.830;6.524;2023-05-25T13:50:58;19.70;95.20
21318;DHT22;10818;50.830;6.524;2023-05-25T13:55:59;19.30;96.70
21318;DHT22;10818;50.830;6.524;2023-05-25T14:00:59;19.30;96.00
21318;DHT22;10818;50.830;6.524;2023-05-25T14:06:00;19.30;97.50
21318;DHT22;10818;50.830;6.524;2023-05-25T14:11:00;19.30;97.50
21318;DHT22;10818;50.830;6.524;2023-05-25T14:16:01;19.70;96.30
21318;DHT22;10818;50.830;6.524;2023-05-25T14:21:02;19.80;96.10
21318;DHT22;10818;50.830;6.524;2023-05-25T14:26:03;19.50;96.70
21318;DHT22;10818;50.830;6.524;2023-05-25T14:31:03;19.60;96.40
21318;DHT22;10818;50.830;6.524;2023-05-25T14:36:04;20.20;95.70
21318;DHT22;10818;50.830;6.524;2023-05-25T14:41:05;20.10;96.40
21318;DHT22;10818;50.830;6.524;2023-05-25T14:46:05;19.70;96.50
21318;DHT22;10818;50.830;6.524;2023-05-25T14:51:07;19.50;96.80
21318;DHT22;10818;50.830;6.524;2023-05-25T14:56:07;19.50;96.70
21318;DHT22;10818;50.830;6.524;2023-05-25T15:01:08;20.00;97.20
21318;DHT22;10818;50.830;6.524;2023-05-25T15:06:08;20.10;96.60
21318;DHT22;10818;50.830;6.524;2023-05-25T15:11:09;19.80;96.80
21318;DHT22;10818;50.830;6.524;2023-05-25T15:16:09;19.80;96.30
21318;DHT22;10818;50.830;6.524;2023-05-25T15:21:10;20.00;95.50
21318;DHT22;10818;50.830;6.524;2023-05-25T15:26:11;20.10;95.90
21318;DHT22;10818;50.830;6.524;2023-05-25T15:31:11;19.80;95.90
21318;DHT22;10818;50.830;6.524;2023-05-25T15:36:12;19.60;96.80
21318;DHT22;10818;50.830;6.524;2023-05-25T15:41:13;19.70;96.70
21318;DHT22;10818;50.830;6.524;2023-05-25T15:46:14;19.80;96.80
21318;DHT22;10818;50.830;6.524;2023-05-25T15:51:14;19.80;97.10
21318;DHT22;10818;50.830;6.524;2023-05-25T15:56:15;19.80;96.80
21318;DHT22;10818;50.830;6.524;2023-05-25T16:01:15;19.90;96.90
21318;DHT22;10818;50.830;6.524;2023-05-25T16:06:16;20.20;96.10
21318;DHT22;10818;50.830;6.524;2023-05-25T16:11:16;19.80;96.50
21318;DHT22;10818;50.830;6.524;2023-05-25T16:16:16;19.50;97.70
21318;DHT22;10818;50.830;6.524;2023-05-25T16:21:18;19.60;97.50
21318;DHT22;10818;50.830;6.524;2023-05-25T16:26:18;19.60;96.80
21318;DHT22;10818;50.830;6.524;2023-05-25T16:31:19;19.50;97.00
21318;DHT22;10818;50.830;6.524;2023-05-25T16:36:19;19.40;97.60
21318;DHT22;10818;50.830;6.524;2023-05-25T16:41:20;19.50;97.70
21318;DHT22;10818;50.830;6.524;2023-05-25T16:46:20;19.60;97.70
21318;DHT22;10818;50.830;6.524;2023-05-25T16:51:21;19.50;97.90
21318;DHT22;10818;50.830;6.524;2023-05-25T16:56:21;19.40;98.80
21318;DHT22;10818;50.830;6.524;2023-05-25T17:01:23;19.40;98.40
21318;DHT22;10818;50.830;6.524;2023-05-25T17:06:24;19.10;98.80
21318;DHT22;10818;50.830;6.524;2023-05-25T17:11:24;19.00;98.90
21318;DHT22;10818;50.830;6.524;2023-05-25T17:16:33;19.10;98.90
21318;DHT22;10818;50.830;6.524;2023-05-25T17:21:35;19.10;98.80
21318;DHT22;10818;50.830;6.524;2023-05-25T17:26:39;19.10;98.90
21318;DHT22;10818;50.830;6.524;2023-05-25T17:31:40;19.00;99.30
21318;DHT22;10818;50.830;6.524;2023-05-25T17:36:41;18.90;99.60
21318;DHT22;10818;50.830;6.524;2023-05-25T17:41:42;18.80;99.80
21318;DHT22;10818;50.830;6.524;2023-05-25T17:46:44;18.60;99.90
21318;DHT22;10818;50.830;6.524;2023-05-25T17:51:50;18.70;99.90
21318;DHT22;10818;50.830;6.524;2023-05-25T17:56:51;18.50;99.90
21318;DHT22;10818;50.830;6.524;2023-05-25T18:07:16;18.50;99.90
21318;DHT22;10818;50.830;6.524;2023-05-25T18:12:21;18.40;99.90
21318;DHT22;10818;50.830;6.524;2023-05-25T18:17:22;18.10;99.90
21318;DHT22;10818;50.830;6.524;2023-05-25T18:22:22;18.10;99.90
21318;DHT22;10818;50.830;6.524;2023-05-25T18:27:23;18.00;99.90
21318;DHT22;10818;50.830;6.524;2023-05-25T18:32:24;18.10;99.90
21318;DHT22;10818;50.830;6.524;2023-05-25T18:37:24;17.70;99.90
21318;DHT22;10818;50.830;6.524;2023-05-25T18:42:28;17.40;99.90
21318;DHT22;10818;50.830;6.524;2023-05-25T18:47:29;17.30;99.90
21318;DHT22;10818;50.830;6.524;2023-05-25T18:52:30;17.20;99.90
21318;DHT22;10818;50.830;6.524;2023-05-25T18:57:33;17.10;99.90
21318;DHT22;10818;50.830;6.524;2023-05-25T19:07:40;16.60;99.90
21318;DHT22;10818;50.830;6.524;2023-05-25T19:12:45;16.50;99.90
21318;DHT22;10818;50.830;6.524;2023-05-25T19:17:48;16.20;99.90
21318;DHT22;10818;50.830;6.524;2023-05-25T19:22:49;16.10;99.90
21318;DHT22;10818;50.830;6.524;2023-05-25T19:27:49;16.00;99.90
21318;DHT22;10818;50.830;6.524;2023-05-25T19:32:51;15.70;99.90
21318;DHT22;10818;50.830;6.524;2023-05-25T19:37:51;15.60;99.90
21318;DHT22;10818;50.830;6.524;2023-05-25T19:42:52;15.40;99.90
21318;DHT22;10818;50.830;6.524;2023-05-25T19:47:53;15.30;99.90
21318;DHT22;10818;50.830;6.524;2023-05-25T19:52:54;15.20;99.90
21318;DHT22;10818;50.830;6.524;2023-05-25T19:57:54;15.10;99.90
21318;DHT22;10818;50.830;6.524;2023-05-25T20:02:55;14.90;99.90
21318;DHT22;10818;50.830;6.524;2023-05-25T20:07:55;14.70;99.90
21318;DHT22;10818;50.830;6.524;2023-05-25T20:12:56;14.70;99.90
21318;DHT22;10818;50.830;6.524;2023-05-25T20:17:56;14.50;99.90
21318;DHT22;10818;50.830;6.524;2023-05-25T20:22:57;14.30;99.90
21318;DHT22;10818;50.830;6.524;2023-05-25T20:27:57;14.30;99.90
21318;DHT22;10818;50.830;6.524;2023-05-25T20:32:58;14.10;99.90
21318;DHT22;10818;50.830;6.524;2023-05-25T20:37:58;13.80;99.90
21318;DHT22;10818;50.830;6.524;2023-05-25T20:42:58;13.70;99.90
21318;DHT22;10818;50.830;6.524;2023-05-25T20:47:59;13.60;99.90
21318;DHT22;10818;50.830;6.524;2023-05-25T20:53:00;13.50;99.90
21318;DHT22;10818;50.830;6.524;2023-05-25T20:58:01;13.40;99.90
21318;DHT22;10818;50.830;6.524;2023-05-25T21:03:01;13.30;99.90
21318;DHT22;10818;50.830;6.524;2023-05-25T21:08:03;13.30;99.90
21318;DHT22;10818;50.830;6.524;2023-05-25T21:13:05;13.20;99.90
21318;DHT22;10818;50.830;6.524;2023-05-25T21:18:05;13.00;99.90
21318;DHT22;10818;50.830;6.524;2023-05-25T21:23:07;12.90;99.90
21318;DHT22;10818;50.830;6.524;2023-05-25T21:28:08;12.80;99.90
21318;DHT22;10818;50.830;6.524;2023-05-25T21:33:09;12.80;99.90
21318;DHT22;10818;50.830;6.524;2023-05-25T21:38:10;12.60;99.90
21318;DHT22;10818;50.830;6.524;2023-05-25T21:43:10;12.60;99.90
21318;DHT22;10818;50.830;6.524;2023-05-25T21:48:10;12.50;99.90
21318;DHT22;10818;50.830;6.524;2023-05-25T21:53:11;12.40;99.90
21318;DHT22;10818;50.830;6.524;2023-05-25T21:58:12;12.30;99.90
21318;DHT22;10818;50.830;6.524;2023-05-25T22:03:12;12.20;99.90
21318;DHT22;10818;50.830;6.524;2023-05-25T22:08:13;12.10;99.90
21318;DHT22;10818;50.830;6.524;2023-05-25T22:13:13;12.10;99.90
21318;DHT22;10818;50.830;6.524;2023-05-25T22:18:14;12.10;99.90
21318;DHT22;10818;50.830;6.524;2023-05-25T22:23:15;12.00;99.90
21318;DHT22;10818;50.830;6.524;2023-05-25T22:28:15;11.90;99.90
21318;DHT22;10818;50.830;6.524;2023-05-25T22:33:16;11.90;99.90
21318;DHT22;10818;50.830;6.524;2023-05-25T22:38:16;11.80;99.90
21318;DHT22;10818;50.830;6.524;2023-05-25T22:43:16;11.70;99.90
21318;DHT22;10818;50.830;6.524;2023-05-25T22:48:17;11.70;99.90
21318;DHT22;10818;50.830;6.524;2023-05-25T22:53:17;11.60;99.90
21318;DHT22;10818;50.830;6.524;2023-05-25T22:58:18;11.50;99.90
21318;DHT22;10818;50.830;6.524;2023-05-25T23:03:18;11.30;99.90
21318;DHT22;10818;50.830;6.524;2023-05-25T23:08:19;11.20;99.90
21318;DHT22;10818;50.830;6.524;2023-05-25T23:13:19;11.10;99.90
21318;DHT22;10818;50.830;6.524;2023-05-25T23:18:23;11.10;99.90
21318;DHT22;10818;50.830;6.524;2023-05-25T23:23:23;11.20;99.90
21318;DHT22;10818;50.830;6.524;2023-05-25T23:28:24;11.20;99.90
21318;DHT22;10818;50.830;6.524;2023-05-25T23:33:24;11.30;99.90
21318;DHT22;10818;50.830;6.524;2023-05-25T23:38:24;11.50;99.90
21318;DHT22;10818;50.830;6.524;2023-05-25T23:43:25;11.60;99.90
21318;DHT22;10818;50.830;6.524;2023-05-25T23:48:26;11.70;99.90
21318;DHT22;10818;50.830;6.524;2023-05-25T23:53:26;11.70;99.90
21318;DHT22;10818;50.830;6.524;2023-05-25T23:58:26;11.60;99.90
